Белгород

Карта отелей и гостиниц, располагающихся рядом с аэропортом Белгород :

Белгород Белгородская область 50° 38' 37.7412" N, 36° 35' 24.36" E
Код аэродрома ИКАО
UUOB
Код аэродрома RU
УУОБ
Координаты
N50.64382° E036.59010°
Превышение над уровнем моря
224
Основная полоса
11L/29R
Курс магнитный
109/289
Длина основной ВПП
2420
Ширина основной ВПП
60
Покрытие основной ВПП
Нетвёрдое (грунт)
Освещение ВПП
Нет
Тип: 
Аэродром
Класс аэродрома: 
Международный
Принадлежность: 
ГА
Статус: 
Действующий
Страна: 
Россия
Регион: 
Белгородская область
Дополнительная информация: 
ДПРМ:718-"AN/BX"; БПРМ:350-"A/B". Нкр.=(500)м.
Погода: 

Авиационная погода в Белгороде

Регион: 
Погода METAR: 
UUOB 282200Z 04002MPS CAVOK 20/16 Q1018 R29/010070 NOSIG
Время наблюдения
2022-06-28T22:00:00Z
Температура C
20.0
Точка росы
16.0
Направление ветра
40
Скорость ветра (узлы)
4
Метео видимость
6.21
Облачность
CAVOK
Нижняя граница облачности (футы)
Явления погоды
Условия полета
VFR
Аэропорт подробнее: 
Прогноз TAF: 

Найти трансфер

С помощью этой формы Вы можете найти трансфер из аэропорта Белгород в город, аэропорт или вокзал:

Погода в аэропортах:

Авиационная погода в Архангельске

Регион: 
Погода METAR: 
ULAA 282200Z 00000MPS 9999 MIFG NSC 06/06 Q1028 R26/CLRD70 NOSIG RMK QFE769/1026
Время наблюдения
2022-06-28T22:00:00Z
Температура C
6.0
Точка росы
6.0
Направление ветра
0
Скорость ветра (узлы)
0
Метео видимость
6.21
Облачность
CLR
Нижняя граница облачности (футы)
Явления погоды
MIFG
Условия полета
VFR
Аэропорт подробнее: 
CLR — нет облаков ниже 3000 м
MIFG - туман поземный;

Авиационная погода в Гродно

Регион: 
Погода METAR: 
UMMG 300400Z 03002MPS 5000 BR NSC 19/18 Q1015 NOSIG
Время наблюдения
2022-06-30T04:00:00Z
Температура C
19.0
Точка росы
18.0
Направление ветра
30
Скорость ветра (узлы)
4
Метео видимость
3.11
Облачность
CLR
Нижняя граница облачности (футы)
Явления погоды
BR
Условия полета
MVFR
Аэропорт подробнее: 
CLR — нет облаков ниже 3000 м
BR – дымка (видимость от 1 до 9 км);

Авиационная погода в Сургуте

Регион: 
Погода METAR: 
USRR 300330Z 02007MPS 350V050 9000 -SHRA SCT009 BKN018CB 10/09 Q0993 R07/290245 NOSIG RMK OBST OBSC QFE740
Время наблюдения
2022-06-30T03:30:00Z
Температура C
10.0
Точка росы
9.0
Направление ветра
20
Скорость ветра (узлы)
14
Метео видимость
5.59
Облачность
SCT
BKN
Нижняя граница облачности (футы)
900
1800
Явления погоды
-SHRA
Условия полета
MVFR
Аэропорт подробнее: 
SCT – разбросанная отдельная облачность; BKN – значительная (рассеянная, разорванная) облачность;
-SHRA - слабый ливневой дождь;

Авиационная погода в Магнитогорске

Погода METAR: 
USCM 282200Z 31003MPS 5000 BR SCT040CB 04/02 Q1009 R36/090060 TEMPO 1500 BR RMK QFE719
Время наблюдения
2022-06-28T22:00:00Z
Температура C
4.0
Точка росы
2.0
Направление ветра
310
Скорость ветра (узлы)
6
Метео видимость
3.11
Облачность
SCT
Нижняя граница облачности (футы)
4000
Явления погоды
BR
Условия полета
MVFR
Аэропорт подробнее: 
SCT – разбросанная отдельная облачность;
BR – дымка (видимость от 1 до 9 км);